Terminal Aerodrome Forecast
Issued by NWS Jackson, MS

Home | Current Version | Previous Version | Text Only | Print | Product List | Glossary On
Versions: 1 2 3 4 5 6 7 8 9 10 11 12 13 14 15 16 17 18 19 20 21 22 23 24 25 26 27 28 29
114
FTUS44 KJAN 211121
TAFHBG
TAF
KHBG 211121Z 2112/2212 12004KT 3SM BR OVC010
     FM211400 14008KT 5SM BR OVC012
     FM211600 16013G20KT P6SM BKN025
     FM212100 17015G22KT P6SM VCSH SCT025 BKN040
     FM220000 17008KT P6SM BKN030
     FM220500 17003KT 4SM BR OVC015
     FM220800 00000KT 1SM BR OVC007=

USA.gov is the U.S. government's official web portal to all federal, state and local government web resources and services.